Time;durP1;ratioP1;P1;durP2;ratioP2;P2;SDS_P1;SDS_P2;PMS_P1;PMS_P2;Temp;Humidity;BMP_temperature;BMP_pressure;BME280_temperature;BME280_humidity;BME280_pressure;Samples;Min_cycle;Max_cycle;Signal;HPM_P1;HPM_P2
2023/06/24 00:00:47;;;;;;;3.55;2.10;;;;;;;30.01;30.58;100739.16;4992015;28;20116;-68
2023/06/24 00:03:18;;;;;;;3.50;2.10;;;;;;;30.06;30.73;100738.91;4987036;28;20086;-71
2023/06/24 00:05:49;;;;;;;3.95;2.00;;;;;;;30.07;30.70;100735.28;4991959;28;20058;-70
2023/06/24 00:08:20;;;;;;;5.47;2.10;;;;;;;30.04;30.76;100730.97;4978975;28;20051;-67
2023/06/24 00:10:49;;;;;;;3.42;1.67;;;;;;;30.09;30.89;100732.53;4989010;28;20093;-67
2023/06/24 00:13:18;;;;;;;4.40;2.08;;;;;;;30.06;30.85;100739.75;4991984;28;20125;-71
2023/06/24 00:15:46;;;;;;;5.28;2.08;;;;;;;29.90;31.71;100737.97;4990159;28;20109;-70
2023/06/24 00:18:16;;;;;;;4.38;1.80;;;;;;;29.93;31.02;100743.16;4994426;28;20042;-71
2023/06/24 00:20:45;;;;;;;2.03;1.73;;;;;;;29.98;31.63;100741.09;4991150;28;20078;-69
2023/06/24 00:23:15;;;;;;;3.22;1.80;;;;;;;29.93;31.08;100738.66;4991477;28;20419;-69
2023/06/24 00:25:43;;;;;;;2.15;1.80;;;;;;;29.89;31.22;100730.91;4989764;28;20046;-71
2023/06/24 00:28:12;;;;;;;2.30;1.50;;;;;;;29.89;31.82;100736.25;4985110;28;20046;-68
2023/06/24 00:30:43;;;;;;;4.60;2.28;;;;;;;29.92;32.18;100738.75;4982744;28;20085;-70
2023/06/24 00:33:13;;;;;;;5.53;1.90;;;;;;;29.91;31.71;100737.03;4998412;28;20132;-71
2023/06/24 00:35:43;;;;;;;3.00;2.33;;;;;;;30.00;31.89;100739.22;4991362;28;20062;-70
2023/06/24 00:38:12;;;;;;;4.45;1.83;;;;;;;30.02;31.36;100740.00;4982983;28;20053;-70
2023/06/24 00:40:47;;;;;;;4.18;1.83;;;;;;;29.99;31.50;100748.19;4988982;28;20053;-71
2023/06/24 00:43:16;;;;;;;2.60;1.58;;;;;;;29.93;30.59;100749.34;4991207;28;20051;-70
2023/06/24 00:45:47;;;;;;;3.20;2.03;;;;;;;29.84;31.30;100744.47;4981436;28;20070;-70
2023/06/24 00:48:16;;;;;;;5.82;2.17;;;;;;;29.77;31.66;100746.59;4979627;28;20054;-70
2023/06/24 00:50:46;;;;;;;6.90;1.95;;;;;;;29.69;31.46;100739.91;4985171;28;20050;-70
2023/06/24 00:53:14;;;;;;;6.75;1.90;;;;;;;29.63;32.27;100746.41;4989179;28;20562;-69
2023/06/24 00:55:45;;;;;;;1.85;1.50;;;;;;;29.51;32.23;100752.34;4981816;28;20058;-69
2023/06/24 00:58:16;;;;;;;4.40;1.58;;;;;;;29.41;31.73;100752.81;4992099;28;20133;-70
2023/06/24 01:00:46;;;;;;;2.53;1.33;;;;;;;29.35;32.73;100755.78;4991891;28;20061;-67
2023/06/24 01:03:16;;;;;;;3.92;1.70;;;;;;;29.04;33.25;100756.34;4983416;28;20388;-69
2023/06/24 01:05:47;;;;;;;3.13;1.65;;;;;;;28.69;33.69;100763.31;4988986;28;20081;-72
2023/06/24 01:08:15;;;;;;;5.10;1.55;;;;;;;28.64;33.50;100760.03;4990269;28;20078;-69
2023/06/24 01:10:44;;;;;;;3.65;1.50;;;;;;;28.61;33.95;100755.66;4989170;28;20046;-70
2023/06/24 01:13:13;;;;;;;4.78;1.50;;;;;;;28.54;34.74;100762.22;4980585;28;20145;-69
2023/06/24 01:15:43;;;;;;;4.00;1.73;;;;;;;28.47;34.92;100755.44;4978370;28;20630;-71
2023/06/24 01:18:25;;;;;;;4.80;1.67;;;;;;;28.43;34.89;100760.03;4987341;28;20038;-70
2023/06/24 01:20:58;;;;;;;;;;;;;;;28.44;35.10;100759.06;4988659;28;20088;-69
2023/06/24 01:24:13;;;;;;;6.03;1.42;;;;;;;28.34;35.59;100758.63;4990922;28;19933;-69
2023/06/24 01:27:15;;;;;;;2.33;1.60;;;;;;;28.19;35.28;100760.16;4980331;28;20050;-70
2023/06/24 01:30:02;;;;;;;3.15;1.42;;;;;;;28.03;35.83;100766.22;4971699;28;20080;-69
2023/06/24 01:32:36;;;;;;;2.88;1.60;;;;;;;27.81;36.69;100774.19;4989585;28;20046;-71
2023/06/24 01:35:10;;;;;;;3.83;1.63;;;;;;;27.51;36.55;100775.44;4993346;28;20134;-70
2023/06/24 01:37:43;;;;;;;6.60;1.40;;;;;;;27.43;36.55;100785.50;4988456;28;20055;-67
2023/06/24 01:40:16;;;;;;;3.10;1.50;;;;;;;27.31;37.02;100794.81;4986579;28;20555;-69
2023/06/24 01:42:48;;;;;;;5.20;1.90;;;;;;;27.13;37.26;100801.69;4992067;28;20491;-70
2023/06/24 01:45:19;;;;;;;2.72;1.45;;;;;;;26.98;37.53;100798.75;4989664;28;20133;-69
2023/06/24 01:47:50;;;;;;;2.43;1.57;;;;;;;26.77;37.82;100806.59;4984648;28;20110;-69
2023/06/24 01:50:25;;;;;;;3.72;1.50;;;;;;;26.46;38.49;100797.06;4983712;28;20915;-70
2023/06/24 01:52:56;;;;;;;2.85;1.70;;;;;;;26.27;39.08;100802.19;4983773;28;20536;-68
2023/06/24 01:55:28;;;;;;;2.58;1.50;;;;;;;26.06;39.35;100800.25;4982804;28;20050;-68
2023/06/24 01:57:58;;;;;;;3.40;1.70;;;;;;;25.95;39.65;100803.25;4992137;28;20150;-68
2023/06/24 02:00:28;;;;;;;3.58;1.80;;;;;;;25.88;39.85;100799.06;4978717;28;20793;-70
2023/06/24 02:02:58;;;;;;;4.32;1.80;;;;;;;25.79;39.72;100802.00;4985781;28;20043;-68
2023/06/24 02:05:28;;;;;;;3.40;1.60;;;;;;;25.71;40.36;100807.56;4982231;28;20046;-68
2023/06/24 02:07:57;;;;;;;1.95;1.60;;;;;;;25.67;40.71;100816.53;4981743;28;20058;-68
2023/06/24 02:10:29;;;;;;;3.80;1.55;;;;;;;25.63;41.21;100817.53;4989950;28;20046;-68
2023/06/24 02:12:58;;;;;;;2.80;1.65;;;;;;;25.45;41.49;100821.66;4994879;28;20069;-70
2023/06/24 02:15:29;;;;;;;8.88;1.83;;;;;;;25.27;42.71;100829.25;4987696;28;20082;-68
2023/06/24 02:18:02;;;;;;;3.13;1.40;;;;;;;25.13;43.23;100831.41;4993500;28;20050;-69
2023/06/24 02:20:33;;;;;;;3.63;1.75;;;;;;;25.05;42.38;100838.69;4986490;28;20046;-68
2023/06/24 02:23:02;;;;;;;2.05;1.50;;;;;;;25.03;42.37;100841.38;4989750;28;20082;-68
2023/06/24 02:25:34;;;;;;;4.78;1.70;;;;;;;25.02;42.27;100838.81;4988752;28;20070;-68
2023/06/24 02:28:03;;;;;;;2.45;1.70;;;;;;;24.96;43.07;100841.63;4994200;28;20117;-69
2023/06/24 02:30:32;;;;;;;8.90;2.22;;;;;;;24.90;42.60;100844.44;4990158;28;20050;-69
2023/06/24 02:33:11;;;;;;;3.10;1.75;;;;;;;24.91;43.30;100849.69;4990200;28;20062;-68
2023/06/24 02:35:41;;;;;;;3.78;1.60;;;;;;;24.93;44.32;100855.81;4988332;28;20355;-68
2023/06/24 02:38:12;;;;;;;2.70;1.67;;;;;;;24.91;44.10;100854.97;4988610;28;20038;-68
2023/06/24 02:40:41;;;;;;;4.33;1.77;;;;;;;24.92;43.39;100855.84;4990506;28;20097;-69
2023/06/24 02:43:10;;;;;;;3.28;1.48;;;;;;;24.95;43.47;100853.13;4990220;28;20047;-67
2023/06/24 02:45:41;;;;;;;4.50;1.80;;;;;;;24.96;42.87;100866.31;4990720;28;20118;-68
2023/06/24 02:48:13;;;;;;;2.20;1.35;;;;;;;24.87;44.65;100867.41;4987698;28;20057;-68
2023/06/24 02:50:43;;;;;;;;;;;;;;;24.75;44.00;100861.63;4993194;28;20487;-69
2023/06/24 02:53:12;;;;;;;9.43;1.85;;;;;;;24.68;43.22;100860.91;4983697;28;19922;-70
2023/06/24 02:55:42;;;;;;;2.80;1.70;;;;;;;24.58;43.66;100875.28;4990131;28;20058;-68
2023/06/24 02:58:11;;;;;;;3.42;1.52;;;;;;;24.51;43.95;100868.44;4991163;28;20042;-69
2023/06/24 03:00:40;;;;;;;4.15;1.85;;;;;;;24.45;43.14;100874.72;4993870;28;20057;-68
2023/06/24 03:03:10;;;;;;;3.13;1.83;;;;;;;24.41;43.72;100879.22;4995339;28;20133;-69
2023/06/24 03:05:40;;;;;;;4.20;1.70;;;;;;;24.35;43.64;100884.69;4989606;28;20053;-68
2023/06/24 03:08:09;;;;;;;2.90;1.60;;;;;;;24.33;44.10;100881.22;4988721;28;20082;-67
2023/06/24 03:10:39;;;;;;;3.00;1.60;;;;;;;24.24;45.46;100882.31;4987249;28;20110;-68
2023/06/24 03:13:07;;;;;;;5.90;1.98;;;;;;;24.28;46.57;100892.78;4983811;28;20057;-67
2023/06/24 03:15:36;;;;;;;2.35;1.55;;;;;;;24.19;44.82;100896.53;4988428;28;20122;-67
2023/06/24 03:18:04;;;;;;;5.03;2.10;;;;;;;24.14;44.88;100895.78;4990564;28;20057;-69
2023/06/24 03:20:38;;;;;;;4.03;1.63;;;;;;;24.12;44.88;100906.41;4991803;28;20319;-69
2023/06/24 03:23:08;;;;;;;2.85;1.52;;;;;;;24.08;44.62;100906.53;4989649;28;20046;-70
2023/06/24 03:25:36;;;;;;;3.88;1.75;;;;;;;24.00;44.35;100910.19;4990731;28;20495;-68
2023/06/24 03:28:07;;;;;;;2.30;1.75;;;;;;;23.94;44.29;100915.63;4989573;28;20176;-68
2023/06/24 03:30:36;;;;;;;3.85;1.90;;;;;;;23.89;46.39;100912.25;4990115;28;20050;-68
2023/06/24 03:33:07;;;;;;;3.10;1.45;;;;;;;23.80;45.69;100931.81;4976533;28;20047;-69
2023/06/24 03:35:37;;;;;;;3.83;1.60;;;;;;;23.76;45.62;100934.56;4982718;28;20500;-69
2023/06/24 03:38:05;;;;;;;2.90;1.60;;;;;;;23.71;45.56;100933.72;4990253;28;20045;-69
2023/06/24 03:40:43;;;;;;;2.97;1.33;;;;;;;23.61;45.69;100939.22;4989278;28;20112;-69
2023/06/24 03:43:12;;;;;;;2.47;1.48;;;;;;;23.57;48.05;100942.84;4984908;28;20121;-68
2023/06/24 03:45:40;;;;;;;7.07;2.13;;;;;;;23.50;48.39;100951.81;4990473;28;20052;-68
2023/06/24 03:48:09;;;;;;;2.17;1.58;;;;;;;23.46;48.16;100959.84;4983313;28;20553;-68
2023/06/24 03:50:39;;;;;;;4.10;1.60;;;;;;;23.38;42.73;100952.06;4988153;28;20056;-68
2023/06/24 03:53:08;;;;;;;3.35;1.73;;;;;;;23.32;47.92;100958.34;4984794;28;20054;-68
2023/06/24 03:55:36;;;;;;;4.13;1.80;;;;;;;23.26;47.61;100962.88;4992120;28;20050;-69
2023/06/24 03:58:05;;;;;;;2.35;1.80;;;;;;;23.19;46.80;100977.94;4991008;28;20617;-69
2023/06/24 04:00:33;;;;;;;4.90;1.70;;;;;;;23.12;44.71;100973.69;4987852;28;20054;-67
2023/06/24 04:03:08;;;;;;;3.03;1.58;;;;;;;23.02;42.72;100980.03;4986726;28;20039;-68
2023/06/24 04:05:46;;;;;;;2.83;1.40;;;;;;;22.98;43.16;100981.84;4965429;28;20096;-67
2023/06/24 04:08:14;;;;;;;2.38;1.70;;;;;;;22.94;41.72;100982.78;4956405;28;20588;-69
2023/06/24 04:10:43;;;;;;;2.30;1.50;;;;;;;22.88;41.60;100988.16;4963873;28;20292;-68
2023/06/24 04:13:11;;;;;;;4.43;1.77;;;;;;;22.81;42.26;100990.03;4961327;28;20050;-68
2023/06/24 04:15:40;;;;;;;3.70;1.60;;;;;;;22.75;42.39;100990.16;4967126;28;20551;-69
2023/06/24 04:18:08;;;;;;;3.33;1.60;;;;;;;22.69;41.11;101001.66;4963760;28;20150;-68
2023/06/24 04:20:37;;;;;;;3.20;2.00;;;;;;;22.68;40.46;101009.63;4964311;28;20492;-68
2023/06/24 04:23:09;;;;;;;2.15;1.52;;;;;;;22.59;41.34;101002.72;4968395;28;20500;-68
2023/06/24 04:25:37;;;;;;;2.55;1.50;;;;;;;22.59;41.05;101018.56;4962881;28;20051;-68
2023/06/24 04:28:06;;;;;;;2.30;1.40;;;;;;;22.54;40.79;101021.28;4968324;28;20345;-68
2023/06/24 04:30:35;;;;;;;3.55;1.30;;;;;;;22.50;40.22;101023.97;4966475;28;20484;-68
2023/06/24 04:33:04;;;;;;;4.65;1.50;;;;;;;22.43;40.70;101028.47;4968529;28;20069;-69
2023/06/24 04:35:33;;;;;;;2.00;1.38;;;;;;;22.41;41.98;101034.66;4964465;28;20079;-68
2023/06/24 04:38:01;;;;;;;2.45;1.42;;;;;;;22.34;41.75;101028.59;4962697;28;20121;-69
2023/06/24 04:40:31;;;;;;;4.43;1.50;;;;;;;22.28;41.61;101034.81;4959032;28;20621;-69
2023/06/24 04:43:00;;;;;;;2.80;1.45;;;;;;;22.22;41.23;101040.22;4957156;28;20462;-68
2023/06/24 04:45:28;;;;;;;2.50;1.00;;;;;;;22.17;41.93;101044.59;4966621;28;20047;-68
2023/06/24 04:47:57;;;;;;;2.78;0.95;;;;;;;22.09;41.76;101043.88;4959771;28;20066;-68
2023/06/24 04:50:27;;;;;;;2.35;1.38;;;;;;;21.97;43.17;101055.44;4965479;28;20130;-69
2023/06/24 04:52:56;;;;;;;3.15;1.23;;;;;;;21.87;45.22;101059.94;4965466;28;20078;-69
2023/06/24 04:55:25;;;;;;;2.15;1.40;;;;;;;21.74;45.67;101059.22;4958362;28;20142;-70
2023/06/24 04:57:55;;;;;;;3.90;1.50;;;;;;;21.53;47.17;101064.72;4962980;28;20050;-68
2023/06/24 05:00:24;;;;;;;4.93;1.42;;;;;;;21.36;47.91;101064.88;4967631;28;20130;-68
2023/06/24 05:02:53;;;;;;;3.28;1.83;;;;;;;21.23;48.64;101071.13;4965875;28;20053;-68
2023/06/24 05:05:21;;;;;;;4.70;1.83;;;;;;;21.16;48.33;101072.09;4988697;28;20054;-69
2023/06/24 05:07:50;;;;;;;3.65;1.50;;;;;;;21.11;48.93;101072.13;4986332;28;20050;-68
2023/06/24 05:10:18;;;;;;;1.88;1.13;;;;;;;21.02;49.47;101073.06;4983681;28;20054;-68
2023/06/24 05:12:47;;;;;;;4.50;1.20;;;;;;;20.90;49.69;101083.72;4981317;28;20353;-68
2023/06/24 05:15:17;;;;;;;2.63;1.35;;;;;;;20.77;50.63;101084.69;4981932;28;20046;-68
2023/06/24 05:17:45;;;;;;;4.00;1.20;;;;;;;20.54;51.36;101085.66;4986709;28;20213;-69
2023/06/24 05:20:14;;;;;;;2.22;1.33;;;;;;;20.38;51.90;101087.53;4984005;28;20165;-69
2023/06/24 05:22:42;;;;;;;2.88;1.30;;;;;;;20.28;52.27;101094.59;4984533;28;20133;-69
2023/06/24 05:25:14;;;;;;;3.58;1.30;;;;;;;20.17;52.34;101093.75;4977713;28;20113;-69
2023/06/24 05:27:44;;;;;;;6.40;1.60;;;;;;;20.07;53.25;101089.44;4984201;28;20268;-68
2023/06/24 05:30:14;;;;;;;4.82;1.38;;;;;;;19.87;54.09;101093.00;4987750;28;20353;-68
2023/06/24 05:32:44;;;;;;;1.77;1.20;;;;;;;19.75;54.18;101100.06;4976006;28;20046;-68
2023/06/24 05:35:12;;;;;;;4.05;1.60;;;;;;;19.63;54.89;101103.53;4984293;28;20053;-68
2023/06/24 05:37:41;;;;;;;3.25;1.48;;;;;;;19.45;55.53;101094.84;4983285;28;20058;-69
2023/06/24 05:40:10;;;;;;;4.05;1.73;;;;;;;19.34;56.58;101107.09;4980470;28;20062;-68
2023/06/24 05:42:38;;;;;;;4.05;1.80;;;;;;;19.19;56.42;101107.97;4987515;28;20042;-68
2023/06/24 05:45:08;;;;;;;7.00;1.27;;;;;;;19.20;56.70;101119.38;4983710;28;20050;-67
2023/06/24 05:47:36;;;;;;;2.75;1.30;;;;;;;19.15;57.13;101128.97;4986304;28;20042;-68
2023/06/24 05:50:07;;;;;;;4.10;1.70;;;;;;;19.09;57.44;101131.59;4983199;28;20153;-66
2023/06/24 05:52:36;;;;;;;4.22;1.55;;;;;;;19.05;58.22;101133.34;4984424;28;20092;-67
2023/06/24 05:55:04;;;;;;;2.88;1.40;;;;;;;18.98;58.01;101132.44;4992619;28;20042;-68
2023/06/24 05:57:33;;;;;;;3.35;1.38;;;;;;;18.88;58.54;101133.31;4983230;28;20157;-67
2023/06/24 06:00:03;;;;;;;2.08;1.08;;;;;;;18.78;58.57;101137.69;4984841;28;20138;-67
2023/06/24 06:02:33;;;;;;;3.80;1.75;;;;;;;18.69;59.25;101136.75;4982478;28;20050;-67
2023/06/24 06:05:01;;;;;;;3.30;1.50;;;;;;;18.59;59.55;101143.72;4985458;28;20075;-67
2023/06/24 06:07:31;;;;;;;1.33;1.13;;;;;;;18.49;59.75;101144.56;4985863;28;20082;-67
2023/06/24 06:10:00;;;;;;;3.80;1.40;;;;;;;18.40;60.60;101140.16;4982512;28;20050;-68
2023/06/24 06:12:29;;;;;;;4.28;1.48;;;;;;;18.31;62.07;101142.75;4984197;28;20135;-68
2023/06/24 06:14:57;;;;;;;3.75;1.50;;;;;;;18.16;62.79;101141.84;4982894;28;20429;-68
2023/06/24 06:17:25;;;;;;;4.90;1.73;;;;;;;18.06;62.40;101145.25;4986263;28;20892;-68
2023/06/24 06:19:54;;;;;;;4.60;1.88;;;;;;;17.99;62.32;101146.09;4987792;28;20129;-69
2023/06/24 06:22:22;;;;;;;1.55;1.10;;;;;;;17.88;62.76;101161.75;4984178;28;20070;-70
2023/06/24 06:24:52;;;;;;;2.03;1.20;;;;;;;17.76;62.81;101161.66;4990712;28;20038;-69
2023/06/24 06:27:21;;;;;;;3.55;1.58;;;;;;;17.63;63.26;101155.44;4988637;28;20054;-68
2023/06/24 06:29:49;;;;;;;4.57;1.70;;;;;;;17.53;63.82;101154.50;4984018;28;20459;-70
2023/06/24 06:32:18;;;;;;;5.03;1.70;;;;;;;17.45;63.56;101165.78;4984634;28;20050;-67
2023/06/24 06:34:46;;;;;;;4.00;1.33;;;;;;;17.33;64.07;101164.81;4988729;28;20142;-68
2023/06/24 06:37:15;;;;;;;3.30;1.30;;;;;;;17.21;65.44;101169.06;4987186;28;20057;-67
2023/06/24 06:39:43;;;;;;;2.42;1.33;;;;;;;17.06;65.61;101177.63;4986613;28;20137;-68
2023/06/24 06:42:14;;;;;;;3.05;1.00;;;;;;;16.92;65.63;101178.38;4987708;28;20049;-67
2023/06/24 06:44:43;;;;;;;5.25;1.27;;;;;;;16.88;65.66;101184.47;4989805;28;20129;-68
2023/06/24 06:47:12;;;;;;;3.58;1.30;;;;;;;16.81;66.27;101187.84;4984580;28;20054;-67
2023/06/24 06:49:41;;;;;;;1.92;1.30;;;;;;;16.78;65.79;101189.53;4982571;28;20108;-67
2023/06/24 06:52:09;;;;;;;2.33;1.35;;;;;;;16.73;66.65;101190.34;4990862;28;20066;-67
2023/06/24 06:54:38;;;;;;;2.22;1.10;;;;;;;16.68;66.32;101196.38;4987443;28;20054;-67
2023/06/24 06:57:07;;;;;;;4.95;1.40;;;;;;;16.58;67.11;101189.28;4986372;28;20050;-68
2023/06/24 06:59:37;;;;;;;1.65;1.13;;;;;;;16.52;67.05;101200.56;4989220;28;20054;-68
2023/06/24 07:02:07;;;;;;;4.63;1.40;;;;;;;16.44;66.79;101203.06;4989583;28;20496;-67
2023/06/24 07:04:35;;;;;;;1.65;1.00;;;;;;;16.41;67.19;101195.19;4989134;28;20062;-68
2023/06/24 07:07:03;;;;;;;4.07;1.25;;;;;;;16.28;67.18;101198.50;4991157;28;20082;-68
2023/06/24 07:09:32;;;;;;;1.60;0.80;;;;;;;16.16;68.87;101206.19;4989604;28;20110;-68
2023/06/24 07:12:00;;;;;;;3.97;1.27;;;;;;;16.06;68.76;101206.03;4989751;28;20046;-66
2023/06/24 07:14:30;;;;;;;4.68;1.58;;;;;;;15.98;68.72;101212.88;4992539;28;20054;-67
2023/06/24 07:17:00;;;;;;;4.03;1.33;;;;;;;15.91;68.55;101216.25;4986635;28;20051;-68
2023/06/24 07:19:28;;;;;;;1.70;0.98;;;;;;;15.87;68.30;101217.06;4994223;28;20522;-68
2023/06/24 07:21:57;;;;;;;5.30;1.02;;;;;;;15.89;67.59;101217.97;4987325;28;20046;-67
2023/06/24 07:24:25;;;;;;;1.52;0.82;;;;;;;15.86;67.61;101224.00;4985832;28;20066;-67
2023/06/24 07:26:54;;;;;;;2.35;1.15;;;;;;;15.84;68.06;101233.53;4986765;28;20060;-67
2023/06/24 07:29:22;;;;;;;4.40;0.98;;;;;;;15.77;67.68;101234.31;4995777;28;20042;-66
2023/06/24 07:31:51;;;;;;;5.43;1.27;;;;;;;15.71;68.54;101228.97;4986779;28;20046;-68
2023/06/24 07:34:21;;;;;;;1.98;0.90;;;;;;;15.60;69.01;101241.84;4986314;28;20065;-68
2023/06/24 07:36:50;;;;;;;1.90;1.38;;;;;;;15.49;70.23;101235.56;4993169;28;20174;-68
2023/06/24 07:39:19;;;;;;;6.32;1.73;;;;;;;15.36;70.32;101242.28;4990937;28;20138;-67
2023/06/24 07:41:47;;;;;;;3.75;1.40;;;;;;;15.30;70.44;101242.16;4989805;28;20042;-67
2023/06/24 07:44:16;;;;;;;5.10;1.42;;;;;;;15.23;71.11;101251.63;4986842;28;20049;-68
2023/06/24 07:46:45;;;;;;;2.95;1.20;;;;;;;15.19;72.25;101255.03;4993273;28;20145;-68
2023/06/24 07:49:13;;;;;;;4.28;1.20;;;;;;;15.16;72.07;101256.69;4992004;28;20153;-67
2023/06/24 07:51:44;;;;;;;8.73;1.33;;;;;;;15.06;73.22;101247.81;4987338;28;20086;-67
2023/06/24 07:54:13;;;;;;;2.30;1.27;;;;;;;15.05;74.42;101259.97;4991805;28;20400;-66
2023/06/24 07:56:42;;;;;;;6.10;1.48;;;;;;;15.01;74.01;101259.88;4988948;28;20050;-67
2023/06/24 07:59:10;;;;;;;3.30;1.48;;;;;;;15.02;74.22;101259.03;4989194;28;20455;-68
2023/06/24 08:01:38;;;;;;;3.67;1.35;;;;;;;14.98;74.20;101262.41;4990053;28;20050;-67
2023/06/24 08:04:07;;;;;;;1.63;1.08;;;;;;;14.95;74.33;101254.56;4987636;28;20050;-67
2023/06/24 08:06:35;;;;;;;3.00;1.25;;;;;;;14.90;74.30;101258.81;4991687;28;20145;-68
2023/06/24 08:09:05;;;;;;;1.63;1.05;;;;;;;14.86;74.76;101270.88;4989276;28;20057;-68
2023/06/24 08:11:34;;;;;;;2.17;1.15;;;;;;;14.76;74.79;101274.16;4994027;28;20078;-67
2023/06/24 08:14:03;;;;;;;3.15;1.20;;;;;;;14.72;75.02;101282.75;4984513;28;20082;-67
2023/06/24 08:16:32;;;;;;;2.33;1.40;;;;;;;14.68;75.10;101281.78;4989213;28;20043;-67
2023/06/24 08:19:00;;;;;;;1.70;1.33;;;;;;;14.63;74.63;101284.28;4986879;28;20141;-66
2023/06/24 08:21:29;;;;;;;1.73;1.13;;;;;;;14.63;74.99;101284.28;4988885;28;20096;-67
2023/06/24 08:23:58;;;;;;;1.30;1.15;;;;;;;14.66;74.54;101284.38;4993355;28;20574;-68
2023/06/24 08:26:27;;;;;;;0.80;0.80;;;;;;;14.71;73.92;101286.22;4990966;28;20050;-68
2023/06/24 08:28:56;;;;;;;1.83;1.25;;;;;;;14.74;74.12;101278.44;4985980;28;20046;-68
2023/06/24 08:31:24;;;;;;;3.08;1.30;;;;;;;14.73;73.84;101285.41;4985255;28;20077;-68
2023/06/24 08:33:55;;;;;;;3.70;1.08;;;;;;;14.74;74.07;101289.75;4988775;28;20043;-67
2023/06/24 08:36:25;;;;;;;1.00;0.80;;;;;;;14.72;73.28;101278.41;4990375;28;20054;-68
2023/06/24 08:38:53;;;;;;;2.05;1.25;;;;;;;14.72;73.73;101282.75;4990175;28;20444;-68
2023/06/24 08:41:22;;;;;;;2.88;1.23;;;;;;;14.72;73.44;101278.41;4994257;28;20054;-68
2023/06/24 08:43:52;;;;;;;4.10;1.65;;;;;;;14.71;73.31;101273.19;4984091;28;20046;-68
2023/06/24 08:46:21;;;;;;;2.45;1.27;;;;;;;14.66;73.44;101275.69;4990479;28;20069;-68
2023/06/24 08:48:57;;;;;;;1.05;0.80;;;;;;;14.61;73.55;101270.38;4989667;28;20038;-68
2023/06/24 08:51:29;;;;;;;3.35;1.20;;;;;;;14.58;73.88;101275.50;4985104;28;20137;-68
2023/06/24 08:53:59;;;;;;;6.68;1.25;;;;;;;14.56;73.35;101277.19;4986968;28;20050;-68
2023/06/24 08:56:28;;;;;;;3.47;1.15;;;;;;;14.53;74.33;101271.03;4987798;28;20039;-68
2023/06/24 08:58:59;;;;;;;6.82;1.38;;;;;;;14.51;73.99;101278.81;4995271;28;20556;-68
2023/06/24 09:01:29;;;;;;;3.70;1.20;;;;;;;14.49;74.18;101290.03;4987247;28;20142;-68
2023/06/24 09:03:58;;;;;;;2.75;1.10;;;;;;;14.39;74.78;101291.56;4987511;28;20068;-68
2023/06/24 09:06:26;;;;;;;2.20;1.13;;;;;;;14.27;75.07;101279.16;4982637;28;20054;-68
2023/06/24 09:08:55;;;;;;;3.60;1.20;;;;;;;14.22;75.40;101275.53;4987091;28;20053;-68
2023/06/24 09:11:28;;;;;;;2.38;1.13;;;;;;;14.22;76.73;101280.75;4987026;28;20062;-68
2023/06/24 09:14:01;;;;;;;;;;;;;;;14.13;76.66;101289.25;4986846;28;20050;-67
2023/06/24 09:16:30;;;;;;;1.85;1.38;;;;;;;14.12;76.13;101289.19;4981814;28;19944;-67
2023/06/24 09:18:59;;;;;;;2.58;1.10;;;;;;;14.13;75.96;101288.34;4988114;28;20057;-68
2023/06/24 09:21:30;;;;;;;2.95;1.13;;;;;;;14.13;75.95;101298.75;4990013;28;20866;-67
2023/06/24 09:24:00;;;;;;;1.75;1.08;;;;;;;14.12;75.93;101291.81;4983795;28;20054;-68
2023/06/24 09:26:29;;;;;;;1.73;1.05;;;;;;;14.07;77.13;101298.63;4989458;28;20042;-68
2023/06/24 09:29:01;;;;;;;6.30;1.13;;;;;;;14.02;77.69;101293.31;4986002;28;20046;-67
2023/06/24 09:31:29;;;;;;;1.92;1.10;;;;;;;14.04;77.51;101305.50;4983232;28;20151;-68
2023/06/24 09:33:59;;;;;;;2.67;1.13;;;;;;;14.00;77.52;101295.88;4986813;28;20050;-68
2023/06/24 09:36:28;;;;;;;2.97;1.05;;;;;;;13.98;77.58;101300.16;4987080;28;20061;-68
2023/06/24 09:38:57;;;;;;;4.43;1.15;;;;;;;13.97;77.79;101302.69;4990018;28;20485;-68
2023/06/24 09:41:27;;;;;;;1.77;1.02;;;;;;;13.98;77.01;101301.88;4985875;28;20054;-68
2023/06/24 09:44:01;;;;;;;2.90;1.63;;;;;;;13.94;76.76;101303.50;4986531;28;20054;-69
2023/06/24 09:46:32;;;;;;;2.05;1.13;;;;;;;13.91;76.98;101310.38;4989885;28;20089;-68
2023/06/24 09:49:01;;;;;;;2.65;1.27;;;;;;;13.91;76.29;101308.66;4984833;28;20082;-67
2023/06/24 09:51:29;;;;;;;3.85;1.08;;;;;;;13.90;76.86;101298.19;4987940;28;20085;-68
2023/06/24 09:54:00;;;;;;;5.68;1.40;;;;;;;13.89;76.43;101301.66;4989672;28;20073;-68
2023/06/24 09:56:29;;;;;;;1.48;0.88;;;;;;;13.89;76.43;101299.06;4989647;28;20046;-68
2023/06/24 09:58:57;;;;;;;3.85;1.42;;;;;;;13.86;76.72;101301.56;4988782;28;20053;-68
2023/06/24 10:01:27;;;;;;;2.08;1.15;;;;;;;13.81;76.64;101293.63;4984263;28;20056;-68
2023/06/24 10:03:56;;;;;;;1.25;1.10;;;;;;;13.75;76.73;101302.19;4987335;28;20042;-69
2023/06/24 10:06:27;;;;;;;4.85;1.38;;;;;;;13.70;77.29;101302.91;4966438;28;20051;-69
2023/06/24 10:08:56;;;;;;;3.72;1.27;;;;;;;13.61;77.98;101307.03;4971709;28;20109;-68
2023/06/24 10:11:25;;;;;;;2.55;0.85;;;;;;;13.53;79.36;101310.28;4967167;28;20054;-67
2023/06/24 10:13:54;;;;;;;4.80;1.17;;;;;;;13.43;79.67;101309.16;4966525;28;20109;-68
2023/06/24 10:16:22;;;;;;;2.70;0.90;;;;;;;13.41;79.59;101310.84;4968835;28;20109;-67
2023/06/24 10:18:52;;;;;;;1.75;1.00;;;;;;;13.45;79.73;101320.47;4972152;28;20452;-68
2023/06/24 10:21:21;;;;;;;1.15;1.02;;;;;;;13.45;79.04;101315.28;4968172;28;20082;-68
2023/06/24 10:23:55;;;;;;;3.20;1.15;;;;;;;13.43;79.43;101321.28;4969574;28;20047;-68
2023/06/24 10:26:28;;;;;;;1.75;1.00;;;;;;;13.41;79.40;101316.03;4970719;28;20493;-68
2023/06/24 10:29:17;;;;;;;2.88;1.70;;;;;;;13.38;79.78;101318.56;4967583;28;20074;-68
2023/06/24 10:31:55;;;;;;;1.40;1.10;;;;;;;13.35;80.10;101323.66;4969966;28;20058;-68
2023/06/24 10:34:34;;;;;;;3.60;1.08;;;;;;;13.35;80.33;101326.25;4972338;28;20058;-68
2023/06/24 10:37:05;;;;;;;6.63;1.50;;;;;;;13.34;80.00;101327.09;4971684;28;20130;-68
2023/06/24 10:39:51;;;;;;;2.08;1.30;;;;;;;13.30;80.44;101328.72;4970810;28;20083;-68
2023/06/24 10:42:41;;;;;;;1.38;1.00;;;;;;;13.30;80.68;101335.66;4961341;28;20514;-68
2023/06/24 10:45:22;;;;;;;5.75;1.48;;;;;;;13.27;80.07;101328.63;4961927;28;20055;-68
2023/06/24 10:47:52;;;;;;;2.83;0.90;;;;;;;13.22;80.57;101330.22;4974512;28;20098;-69
2023/06/24 10:50:23;;;;;;;1.27;1.08;;;;;;;13.20;80.98;101334.50;4971922;28;20504;-67
2023/06/24 10:52:55;;;;;;;1.15;1.05;;;;;;;13.16;81.11;101338.69;4968707;28;20051;-68
2023/06/24 10:55:26;;;;;;;2.97;1.00;;;;;;;13.13;81.25;101338.63;4967720;28;20116;-67
2023/06/24 10:57:54;;;;;;;1.92;1.00;;;;;;;13.11;81.19;101327.31;4971667;28;20051;-69
2023/06/24 11:00:23;;;;;;;7.95;1.52;;;;;;;13.06;81.08;101334.09;4969346;28;20055;-68
2023/06/24 11:02:51;;;;;;;2.63;1.30;;;;;;;13.06;81.27;101335.81;4969752;28;20043;-68
2023/06/24 11:05:21;;;;;;;3.75;1.17;;;;;;;13.05;80.87;101329.72;4986240;28;20082;-67
2023/06/24 11:07:50;;;;;;;2.25;1.20;;;;;;;13.00;80.83;101327.00;4991221;28;20085;-68
2023/06/24 11:10:18;;;;;;;2.95;1.05;;;;;;;12.96;80.63;101332.06;4991666;28;20137;-67
2023/06/24 11:12:47;;;;;;;3.95;1.20;;;;;;;12.93;80.78;101332.84;4987947;28;20054;-67
2023/06/24 11:15:16;;;;;;;3.75;1.40;;;;;;;12.91;80.09;101328.44;4993099;28;20046;-68
2023/06/24 11:17:45;;;;;;;1.48;1.10;;;;;;;12.88;79.40;101333.56;4989678;28;20042;-68
2023/06/24 11:20:14;;;;;;;4.03;1.40;;;;;;;12.83;80.01;101328.25;4991716;28;20053;-67
2023/06/24 11:22:52;;;;;;;1.70;0.98;;;;;;;12.84;79.90;101336.91;4990803;28;20042;-68
2023/06/24 11:25:22;;;;;;;3.13;0.85;;;;;;;12.82;79.57;101346.38;4993740;28;20553;-67
2023/06/24 11:27:53;;;;;;;3.92;1.05;;;;;;;12.78;79.21;101343.69;4993303;28;20038;-68
2023/06/24 11:30:22;;;;;;;1.80;1.08;;;;;;;12.78;79.82;101343.69;4993519;28;20496;-67
2023/06/24 11:32:51;;;;;;;1.42;1.00;;;;;;;12.78;79.17;101350.56;4991585;28;20042;-68
2023/06/24 11:35:19;;;;;;;2.50;1.00;;;;;;;12.73;78.11;101342.63;4969374;28;20057;-67
2023/06/24 11:37:50;;;;;;;5.10;1.20;;;;;;;12.70;77.95;101352.06;4991518;28;20952;-68
2023/06/24 11:40:20;;;;;;;2.85;1.30;;;;;;;12.69;78.22;101339.91;4989143;28;20316;-67